sensor_id;sensor_type;location;lat;lon;timestamp;temperature;humidity
51996;DHT22;38010;53.264;6.592;2023-11-18T00:00:49;12.90;99.90
51996;DHT22;38010;53.264;6.592;2023-11-18T00:03:16;12.90;99.90
51996;DHT22;38010;53.264;6.592;2023-11-18T00:05:42;12.90;99.90
51996;DHT22;38010;53.264;6.592;2023-11-18T00:08:08;12.90;99.90
51996;DHT22;38010;53.264;6.592;2023-11-18T00:10:33;12.90;99.90
51996;DHT22;38010;53.264;6.592;2023-11-18T00:12:59;12.90;99.90
51996;DHT22;38010;53.264;6.592;2023-11-18T00:15:27;12.80;99.90
51996;DHT22;38010;53.264;6.592;2023-11-18T00:17:54;12.80;99.90
51996;DHT22;38010;53.264;6.592;2023-11-18T00:20:19;12.80;99.90
51996;DHT22;38010;53.264;6.592;2023-11-18T00:22:45;12.80;99.90
51996;DHT22;38010;53.264;6.592;2023-11-18T00:25:11;12.80;99.90
51996;DHT22;38010;53.264;6.592;2023-11-18T00:27:40;12.80;99.90
51996;DHT22;38010;53.264;6.592;2023-11-18T00:30:06;12.80;99.90
51996;DHT22;38010;53.264;6.592;2023-11-18T00:32:37;12.80;99.90
51996;DHT22;38010;53.264;6.592;2023-11-18T00:35:03;12.80;99.90
51996;DHT22;38010;53.264;6.592;2023-11-18T00:37:32;12.80;99.90
51996;DHT22;38010;53.264;6.592;2023-11-18T00:39:58;12.70;99.90
51996;DHT22;38010;53.264;6.592;2023-11-18T00:42:24;12.70;99.90
51996;DHT22;38010;53.264;6.592;2023-11-18T00:44:49;12.70;99.90
51996;DHT22;38010;53.264;6.592;2023-11-18T00:47:15;12.70;99.90
51996;DHT22;38010;53.264;6.592;2023-11-18T00:49:41;12.70;99.90
51996;DHT22;38010;53.264;6.592;2023-11-18T00:52:06;12.70;99.90
51996;DHT22;38010;53.264;6.592;2023-11-18T00:54:32;12.70;99.90
51996;DHT22;38010;53.264;6.592;2023-11-18T00:56:58;12.70;99.90
51996;DHT22;38010;53.264;6.592;2023-11-18T00:59:23;12.70;99.90
51996;DHT22;38010;53.264;6.592;2023-11-18T01:01:49;12.60;99.90
51996;DHT22;38010;53.264;6.592;2023-11-18T01:04:15;12.60;99.90
51996;DHT22;38010;53.264;6.592;2023-11-18T01:06:42;12.60;99.90
51996;DHT22;38010;53.264;6.592;2023-11-18T01:09:09;12.60;99.90
51996;DHT22;38010;53.264;6.592;2023-11-18T01:11:35;12.60;99.90
51996;DHT22;38010;53.264;6.592;2023-11-18T01:14:02;12.60;99.90
51996;DHT22;38010;53.264;6.592;2023-11-18T01:16:28;12.60;99.90
51996;DHT22;38010;53.264;6.592;2023-11-18T01:18:54;12.60;99.90
51996;DHT22;38010;53.264;6.592;2023-11-18T01:21:20;12.60;99.90
51996;DHT22;38010;53.264;6.592;2023-11-18T01:23:46;12.60;99.90
51996;DHT22;38010;53.264;6.592;2023-11-18T01:26:12;12.60;99.90
51996;DHT22;38010;53.264;6.592;2023-11-18T01:28:41;12.50;99.90
51996;DHT22;38010;53.264;6.592;2023-11-18T01:31:11;12.60;99.90
51996;DHT22;38010;53.264;6.592;2023-11-18T01:33:40;12.60;99.90
51996;DHT22;38010;53.264;6.592;2023-11-18T01:36:07;12.60;99.90
51996;DHT22;38010;53.264;6.592;2023-11-18T01:38:34;12.70;99.90
51996;DHT22;38010;53.264;6.592;2023-11-18T01:41:00;12.70;99.90
51996;DHT22;38010;53.264;6.592;2023-11-18T01:43:26;12.80;99.90
51996;DHT22;38010;53.264;6.592;2023-11-18T01:45:52;12.80;99.90
51996;DHT22;38010;53.264;6.592;2023-11-18T01:48:19;12.80;99.90
51996;DHT22;38010;53.264;6.592;2023-11-18T01:50:47;12.80;99.90
51996;DHT22;38010;53.264;6.592;2023-11-18T01:53:13;12.90;99.90
51996;DHT22;38010;53.264;6.592;2023-11-18T01:55:42;12.90;99.90
51996;DHT22;38010;53.264;6.592;2023-11-18T01:58:08;13.00;99.90
51996;DHT22;38010;53.264;6.592;2023-11-18T02:00:41;13.00;99.90
51996;DHT22;38010;53.264;6.592;2023-11-18T02:03:12;13.00;99.90
51996;DHT22;38010;53.264;6.592;2023-11-18T02:05:37;13.10;99.90
51996;DHT22;38010;53.264;6.592;2023-11-18T02:08:05;13.10;99.90
51996;DHT22;38010;53.264;6.592;2023-11-18T02:10:35;13.10;99.90
51996;DHT22;38010;53.264;6.592;2023-11-18T02:15:33;13.10;99.90
51996;DHT22;38010;53.264;6.592;2023-11-18T02:18:02;13.20;99.90
51996;DHT22;38010;53.264;6.592;2023-11-18T02:20:29;13.20;99.90
51996;DHT22;38010;53.264;6.592;2023-11-18T02:22:55;13.20;99.90
51996;DHT22;38010;53.264;6.592;2023-11-18T02:25:24;13.20;99.90
51996;DHT22;38010;53.264;6.592;2023-11-18T02:27:52;13.30;99.90
51996;DHT22;38010;53.264;6.592;2023-11-18T02:30:19;13.30;99.90
51996;DHT22;38010;53.264;6.592;2023-11-18T02:33:20;13.30;99.90
51996;DHT22;38010;53.264;6.592;2023-11-18T02:35:59;13.30;99.90
51996;DHT22;38010;53.264;6.592;2023-11-18T02:38:30;13.30;99.90
51996;DHT22;38010;53.264;6.592;2023-11-18T02:40:58;13.40;99.90
51996;DHT22;38010;53.264;6.592;2023-11-18T02:43:26;13.40;99.90
51996;DHT22;38010;53.264;6.592;2023-11-18T02:45:54;13.40;99.90
51996;DHT22;38010;53.264;6.592;2023-11-18T02:48:22;13.40;99.90
51996;DHT22;38010;53.264;6.592;2023-11-18T02:50:49;13.40;99.90
51996;DHT22;38010;53.264;6.592;2023-11-18T02:53:14;13.50;99.90
51996;DHT22;38010;53.264;6.592;2023-11-18T02:55:40;13.50;99.90
51996;DHT22;38010;53.264;6.592;2023-11-18T02:58:06;13.50;99.90
51996;DHT22;38010;53.264;6.592;2023-11-18T03:00:33;13.50;99.90
51996;DHT22;38010;53.264;6.592;2023-11-18T03:02:59;13.50;99.90
51996;DHT22;38010;53.264;6.592;2023-11-18T03:05:25;13.50;99.90
51996;DHT22;38010;53.264;6.592;2023-11-18T03:07:51;13.50;99.90
51996;DHT22;38010;53.264;6.592;2023-11-18T03:10:22;13.50;99.90
51996;DHT22;38010;53.264;6.592;2023-11-18T03:12:49;13.50;99.90
51996;DHT22;38010;53.264;6.592;2023-11-18T03:15:15;13.50;99.90
51996;DHT22;38010;53.264;6.592;2023-11-18T03:17:48;13.50;99.90
51996;DHT22;38010;53.264;6.592;2023-11-18T03:20:24;13.50;99.90
51996;DHT22;38010;53.264;6.592;2023-11-18T03:22:51;13.50;99.90
51996;DHT22;38010;53.264;6.592;2023-11-18T03:25:18;13.60;99.90
51996;DHT22;38010;53.264;6.592;2023-11-18T03:27:45;13.60;99.90
51996;DHT22;38010;53.264;6.592;2023-11-18T03:30:11;13.60;99.90
51996;DHT22;38010;53.264;6.592;2023-11-18T03:32:38;13.60;99.90
51996;DHT22;38010;53.264;6.592;2023-11-18T03:35:05;13.70;99.90
51996;DHT22;38010;53.264;6.592;2023-11-18T03:37:35;13.70;99.90
51996;DHT22;38010;53.264;6.592;2023-11-18T03:40:01;13.70;99.90
51996;DHT22;38010;53.264;6.592;2023-11-18T03:42:27;13.80;99.90
51996;DHT22;38010;53.264;6.592;2023-11-18T03:44:53;13.80;99.90
51996;DHT22;38010;53.264;6.592;2023-11-18T03:47:18;13.80;99.90
51996;DHT22;38010;53.264;6.592;2023-11-18T03:49:44;13.80;99.90
51996;DHT22;38010;53.264;6.592;2023-11-18T03:52:10;13.80;99.90
51996;DHT22;38010;53.264;6.592;2023-11-18T03:54:35;13.80;99.90
51996;DHT22;38010;53.264;6.592;2023-11-18T03:57:01;13.80;99.90
51996;DHT22;38010;53.264;6.592;2023-11-18T03:59:27;13.80;99.90
51996;DHT22;38010;53.264;6.592;2023-11-18T04:01:52;13.80;99.90
51996;DHT22;38010;53.264;6.592;2023-11-18T04:04:18;13.80;99.90
51996;DHT22;38010;53.264;6.592;2023-11-18T04:06:44;13.80;99.90
51996;DHT22;38010;53.264;6.592;2023-11-18T04:09:12;13.70;99.90
51996;DHT22;38010;53.264;6.592;2023-11-18T04:11:38;13.70;99.90
51996;DHT22;38010;53.264;6.592;2023-11-18T04:14:04;13.70;99.90
51996;DHT22;38010;53.264;6.592;2023-11-18T04:16:30;13.80;99.90
51996;DHT22;38010;53.264;6.592;2023-11-18T04:18:55;13.80;99.90
51996;DHT22;38010;53.264;6.592;2023-11-18T04:21:21;13.80;99.90
51996;DHT22;38010;53.264;6.592;2023-11-18T04:23:47;13.70;99.90
51996;DHT22;38010;53.264;6.592;2023-11-18T04:26:13;13.70;99.90
51996;DHT22;38010;53.264;6.592;2023-11-18T04:28:39;13.70;99.90
51996;DHT22;38010;53.264;6.592;2023-11-18T04:31:05;13.70;99.90
51996;DHT22;38010;53.264;6.592;2023-11-18T04:33:31;13.70;99.90
51996;DHT22;38010;53.264;6.592;2023-11-18T04:35:57;13.70;99.90
51996;DHT22;38010;53.264;6.592;2023-11-18T04:38:23;13.70;99.90
51996;DHT22;38010;53.264;6.592;2023-11-18T04:40:49;13.70;99.90
51996;DHT22;38010;53.264;6.592;2023-11-18T04:43:15;13.70;99.90
51996;DHT22;38010;53.264;6.592;2023-11-18T04:45:44;13.70;99.90
51996;DHT22;38010;53.264;6.592;2023-11-18T04:48:09;13.70;99.90
51996;DHT22;38010;53.264;6.592;2023-11-18T04:50:35;13.70;99.90
51996;DHT22;38010;53.264;6.592;2023-11-18T04:53:01;13.70;99.90
51996;DHT22;38010;53.264;6.592;2023-11-18T04:55:29;13.80;99.90
51996;DHT22;38010;53.264;6.592;2023-11-18T04:57:55;13.80;99.90
51996;DHT22;38010;53.264;6.592;2023-11-18T05:00:21;13.80;99.90
51996;DHT22;38010;53.264;6.592;2023-11-18T05:02:47;13.80;99.90
51996;DHT22;38010;53.264;6.592;2023-11-18T05:05:14;13.80;99.90
51996;DHT22;38010;53.264;6.592;2023-11-18T05:07:41;13.70;99.90
51996;DHT22;38010;53.264;6.592;2023-11-18T05:10:08;13.70;99.90
51996;DHT22;38010;53.264;6.592;2023-11-18T05:12:34;13.70;99.90
51996;DHT22;38010;53.264;6.592;2023-11-18T05:15:00;13.70;99.90
51996;DHT22;38010;53.264;6.592;2023-11-18T05:17:26;13.70;99.90
51996;DHT22;38010;53.264;6.592;2023-11-18T05:19:53;13.70;99.90
51996;DHT22;38010;53.264;6.592;2023-11-18T05:22:19;13.70;99.90
51996;DHT22;38010;53.264;6.592;2023-11-18T05:24:46;13.70;99.90
51996;DHT22;38010;53.264;6.592;2023-11-18T05:27:14;13.70;99.90
51996;DHT22;38010;53.264;6.592;2023-11-18T05:29:39;13.70;99.90
51996;DHT22;38010;53.264;6.592;2023-11-18T05:32:07;13.70;99.90
51996;DHT22;38010;53.264;6.592;2023-11-18T05:34:33;13.70;99.90
51996;DHT22;38010;53.264;6.592;2023-11-18T05:37:01;13.70;99.90
51996;DHT22;38010;53.264;6.592;2023-11-18T05:39:27;13.70;99.90
51996;DHT22;38010;53.264;6.592;2023-11-18T05:41:57;13.70;99.90
51996;DHT22;38010;53.264;6.592;2023-11-18T05:44:22;13.70;99.90
51996;DHT22;38010;53.264;6.592;2023-11-18T05:46:59;13.70;99.90
51996;DHT22;38010;53.264;6.592;2023-11-18T05:49:25;13.70;99.90
51996;DHT22;38010;53.264;6.592;2023-11-18T05:51:50;13.70;99.90
51996;DHT22;38010;53.264;6.592;2023-11-18T05:54:17;13.70;99.90
51996;DHT22;38010;53.264;6.592;2023-11-18T05:56:43;13.70;99.90
51996;DHT22;38010;53.264;6.592;2023-11-18T05:59:09;13.70;99.90
51996;DHT22;38010;53.264;6.592;2023-11-18T06:01:36;13.70;99.90
51996;DHT22;38010;53.264;6.592;2023-11-18T06:04:03;13.70;99.90
51996;DHT22;38010;53.264;6.592;2023-11-18T06:06:29;13.80;99.90
51996;DHT22;38010;53.264;6.592;2023-11-18T06:08:57;13.80;99.90
51996;DHT22;38010;53.264;6.592;2023-11-18T06:11:30;13.80;99.90
51996;DHT22;38010;53.264;6.592;2023-11-18T06:13:58;13.80;99.90
51996;DHT22;38010;53.264;6.592;2023-11-18T06:16:24;13.80;99.90
51996;DHT22;38010;53.264;6.592;2023-11-18T06:18:55;13.80;99.90
51996;DHT22;38010;53.264;6.592;2023-11-18T06:21:24;13.90;99.90
51996;DHT22;38010;53.264;6.592;2023-11-18T06:23:50;13.90;99.90
51996;DHT22;38010;53.264;6.592;2023-11-18T06:26:17;13.90;99.90
51996;DHT22;38010;53.264;6.592;2023-11-18T06:28:46;13.90;99.90
51996;DHT22;38010;53.264;6.592;2023-11-18T06:31:12;13.90;99.90
51996;DHT22;38010;53.264;6.592;2023-11-18T06:33:44;13.90;99.90
51996;DHT22;38010;53.264;6.592;2023-11-18T06:38:39;13.80;99.90
51996;DHT22;38010;53.264;6.592;2023-11-18T06:41:06;13.80;99.90
51996;DHT22;38010;53.264;6.592;2023-11-18T06:43:36;13.90;99.90
51996;DHT22;38010;53.264;6.592;2023-11-18T06:46:30;13.90;99.90
51996;DHT22;38010;53.264;6.592;2023-11-18T06:49:00;13.90;99.90
51996;DHT22;38010;53.264;6.592;2023-11-18T06:51:30;13.90;99.90
51996;DHT22;38010;53.264;6.592;2023-11-18T06:53:57;13.90;99.90
51996;DHT22;38010;53.264;6.592;2023-11-18T06:56:24;13.90;99.90
51996;DHT22;38010;53.264;6.592;2023-11-18T06:58:50;13.90;99.90
51996;DHT22;38010;53.264;6.592;2023-11-18T07:01:16;13.90;99.90
51996;DHT22;38010;53.264;6.592;2023-11-18T07:03:42;13.90;99.90
51996;DHT22;38010;53.264;6.592;2023-11-18T07:06:09;13.90;99.90
51996;DHT22;38010;53.264;6.592;2023-11-18T07:08:38;13.90;99.90
51996;DHT22;38010;53.264;6.592;2023-11-18T07:11:05;13.90;99.90
51996;DHT22;38010;53.264;6.592;2023-11-18T07:13:32;13.90;99.90
51996;DHT22;38010;53.264;6.592;2023-11-18T07:15:59;14.00;99.90
51996;DHT22;38010;53.264;6.592;2023-11-18T07:18:28;14.00;99.90
51996;DHT22;38010;53.264;6.592;2023-11-18T07:20:56;14.00;99.90
51996;DHT22;38010;53.264;6.592;2023-11-18T07:23:21;14.00;99.90
51996;DHT22;38010;53.264;6.592;2023-11-18T07:25:48;14.00;99.90
51996;DHT22;38010;53.264;6.592;2023-11-18T07:28:14;14.00;99.90
51996;DHT22;38010;53.264;6.592;2023-11-18T07:30:43;14.10;99.90
51996;DHT22;38010;53.264;6.592;2023-11-18T07:33:16;14.10;99.90
51996;DHT22;38010;53.264;6.592;2023-11-18T07:35:43;14.10;99.90
51996;DHT22;38010;53.264;6.592;2023-11-18T07:38:09;14.10;99.90
51996;DHT22;38010;53.264;6.592;2023-11-18T07:40:36;14.10;99.90
51996;DHT22;38010;53.264;6.592;2023-11-18T07:43:03;14.10;99.90
51996;DHT22;38010;53.264;6.592;2023-11-18T07:45:39;14.20;99.90
51996;DHT22;38010;53.264;6.592;2023-11-18T07:48:05;14.20;99.90
51996;DHT22;38010;53.264;6.592;2023-11-18T07:50:39;14.10;99.90
51996;DHT22;38010;53.264;6.592;2023-11-18T07:53:10;14.20;99.90
51996;DHT22;38010;53.264;6.592;2023-11-18T07:55:37;14.20;99.90
51996;DHT22;38010;53.264;6.592;2023-11-18T07:58:09;14.20;99.90
51996;DHT22;38010;53.264;6.592;2023-11-18T08:03:05;14.20;99.90
51996;DHT22;38010;53.264;6.592;2023-11-18T08:05:34;14.20;99.90
51996;DHT22;38010;53.264;6.592;2023-11-18T08:08:00;14.20;99.90
51996;DHT22;38010;53.264;6.592;2023-11-18T08:10:26;14.20;99.90
51996;DHT22;38010;53.264;6.592;2023-11-18T08:12:51;14.20;99.90
51996;DHT22;38010;53.264;6.592;2023-11-18T08:15:20;14.20;99.90
51996;DHT22;38010;53.264;6.592;2023-11-18T08:17:46;14.20;99.90
51996;DHT22;38010;53.264;6.592;2023-11-18T08:20:11;14.20;99.90
51996;DHT22;38010;53.264;6.592;2023-11-18T08:22:43;14.20;99.90
51996;DHT22;38010;53.264;6.592;2023-11-18T08:25:13;14.20;99.90
51996;DHT22;38010;53.264;6.592;2023-11-18T08:27:40;14.20;99.90
51996;DHT22;38010;53.264;6.592;2023-11-18T08:30:09;14.20;99.90
51996;DHT22;38010;53.264;6.592;2023-11-18T08:32:39;14.20;99.90
51996;DHT22;38010;53.264;6.592;2023-11-18T08:35:06;14.20;99.90
51996;DHT22;38010;53.264;6.592;2023-11-18T08:37:38;14.20;99.90
51996;DHT22;38010;53.264;6.592;2023-11-18T08:40:05;14.20;99.90
51996;DHT22;38010;53.264;6.592;2023-11-18T08:42:44;14.20;99.90
51996;DHT22;38010;53.264;6.592;2023-11-18T08:45:20;14.20;99.90
51996;DHT22;38010;53.264;6.592;2023-11-18T08:47:48;14.20;99.90
51996;DHT22;38010;53.264;6.592;2023-11-18T08:50:17;14.10;99.90
51996;DHT22;38010;53.264;6.592;2023-11-18T08:52:43;14.10;99.90
51996;DHT22;38010;53.264;6.592;2023-11-18T08:55:13;14.20;99.90
51996;DHT22;38010;53.264;6.592;2023-11-18T08:57:51;14.20;99.90
51996;DHT22;38010;53.264;6.592;2023-11-18T09:00:30;14.20;99.90
51996;DHT22;38010;53.264;6.592;2023-11-18T09:03:08;14.20;99.90
51996;DHT22;38010;53.264;6.592;2023-11-18T09:05:34;14.20;99.90
51996;DHT22;38010;53.264;6.592;2023-11-18T09:08:02;14.20;99.90
51996;DHT22;38010;53.264;6.592;2023-11-18T09:10:31;14.10;99.90
51996;DHT22;38010;53.264;6.592;2023-11-18T09:12:59;14.10;99.90
51996;DHT22;38010;53.264;6.592;2023-11-18T09:15:25;14.10;99.90
51996;DHT22;38010;53.264;6.592;2023-11-18T09:17:51;14.20;99.90
51996;DHT22;38010;53.264;6.592;2023-11-18T09:20:18;14.30;99.90
51996;DHT22;38010;53.264;6.592;2023-11-18T09:22:50;14.30;99.90
51996;DHT22;38010;53.264;6.592;2023-11-18T09:25:21;14.30;99.90
51996;DHT22;38010;53.264;6.592;2023-11-18T09:27:47;14.30;99.90
51996;DHT22;38010;53.264;6.592;2023-11-18T09:30:13;14.30;99.90
51996;DHT22;38010;53.264;6.592;2023-11-18T09:32:40;14.30;99.90
51996;DHT22;38010;53.264;6.592;2023-11-18T09:35:10;14.30;99.90
51996;DHT22;38010;53.264;6.592;2023-11-18T09:37:39;14.30;99.90
51996;DHT22;38010;53.264;6.592;2023-11-18T09:40:07;14.20;99.90
51996;DHT22;38010;53.264;6.592;2023-11-18T09:42:40;14.20;99.90
51996;DHT22;38010;53.264;6.592;2023-11-18T09:45:09;14.20;99.90
51996;DHT22;38010;53.264;6.592;2023-11-18T09:47:43;14.20;99.90
51996;DHT22;38010;53.264;6.592;2023-11-18T09:50:17;14.10;99.90
51996;DHT22;38010;53.264;6.592;2023-11-18T09:52:51;14.10;99.90
51996;DHT22;38010;53.264;6.592;2023-11-18T09:55:45;14.10;99.90
51996;DHT22;38010;53.264;6.592;2023-11-18T09:58:15;14.10;99.90
51996;DHT22;38010;53.264;6.592;2023-11-18T10:00:47;14.10;99.90
51996;DHT22;38010;53.264;6.592;2023-11-18T10:03:16;14.10;99.90
51996;DHT22;38010;53.264;6.592;2023-11-18T10:05:42;14.10;99.90
51996;DHT22;38010;53.264;6.592;2023-11-18T10:08:08;14.10;99.90
51996;DHT22;38010;53.264;6.592;2023-11-18T10:10:35;14.10;99.90
51996;DHT22;38010;53.264;6.592;2023-11-18T10:13:04;14.10;99.90
51996;DHT22;38010;53.264;6.592;2023-11-18T10:15:44;14.10;99.90
51996;DHT22;38010;53.264;6.592;2023-11-18T10:18:10;14.10;99.90
51996;DHT22;38010;53.264;6.592;2023-11-18T10:20:51;14.10;99.90
51996;DHT22;38010;53.264;6.592;2023-11-18T10:23:18;14.10;99.90
51996;DHT22;38010;53.264;6.592;2023-11-18T10:25:47;14.10;99.90
51996;DHT22;38010;53.264;6.592;2023-11-18T10:28:27;14.10;99.90
51996;DHT22;38010;53.264;6.592;2023-11-18T10:30:57;14.10;99.90
51996;DHT22;38010;53.264;6.592;2023-11-18T10:33:27;14.10;99.90
51996;DHT22;38010;53.264;6.592;2023-11-18T10:35:59;14.10;99.90
51996;DHT22;38010;53.264;6.592;2023-11-18T10:38:33;14.10;99.90
51996;DHT22;38010;53.264;6.592;2023-11-18T10:41:04;14.10;99.90
51996;DHT22;38010;53.264;6.592;2023-11-18T10:43:31;14.10;99.90
51996;DHT22;38010;53.264;6.592;2023-11-18T10:46:19;14.10;99.90
51996;DHT22;38010;53.264;6.592;2023-11-18T10:48:50;14.10;99.90
51996;DHT22;38010;53.264;6.592;2023-11-18T10:51:20;14.10;99.90
51996;DHT22;38010;53.264;6.592;2023-11-18T10:53:51;14.10;99.90
51996;DHT22;38010;53.264;6.592;2023-11-18T10:56:29;14.10;99.90
51996;DHT22;38010;53.264;6.592;2023-11-18T10:58:56;14.10;99.90
51996;DHT22;38010;53.264;6.592;2023-11-18T11:01:30;14.20;99.90
51996;DHT22;38010;53.264;6.592;2023-11-18T11:04:00;14.20;99.90
51996;DHT22;38010;53.264;6.592;2023-11-18T11:06:30;14.20;99.90
51996;DHT22;38010;53.264;6.592;2023-11-18T11:08:57;14.20;99.90
51996;DHT22;38010;53.264;6.592;2023-11-18T11:11:26;14.10;99.90
51996;DHT22;38010;53.264;6.592;2023-11-18T11:13:56;14.20;99.90
51996;DHT22;38010;53.264;6.592;2023-11-18T11:16:33;14.20;99.90
51996;DHT22;38010;53.264;6.592;2023-11-18T11:19:04;14.20;99.90
51996;DHT22;38010;53.264;6.592;2023-11-18T11:21:47;14.20;99.90
51996;DHT22;38010;53.264;6.592;2023-11-18T11:24:27;14.20;99.90
51996;DHT22;38010;53.264;6.592;2023-11-18T11:27:12;14.20;99.90
51996;DHT22;38010;53.264;6.592;2023-11-18T11:29:54;14.10;99.90
51996;DHT22;38010;53.264;6.592;2023-11-18T11:32:26;14.10;99.90
51996;DHT22;38010;53.264;6.592;2023-11-18T11:35:02;14.10;99.90
51996;DHT22;38010;53.264;6.592;2023-11-18T11:37:33;14.10;99.90
51996;DHT22;38010;53.264;6.592;2023-11-18T11:40:02;14.10;99.90
51996;DHT22;38010;53.264;6.592;2023-11-18T11:42:35;14.10;99.90
51996;DHT22;38010;53.264;6.592;2023-11-18T11:45:01;14.00;99.90
51996;DHT22;38010;53.264;6.592;2023-11-18T11:47:29;14.00;99.90
51996;DHT22;38010;53.264;6.592;2023-11-18T11:50:13;14.00;99.90
51996;DHT22;38010;53.264;6.592;2023-11-18T11:52:51;13.90;99.90
51996;DHT22;38010;53.264;6.592;2023-11-18T11:55:46;13.90;99.90
51996;DHT22;38010;53.264;6.592;2023-11-18T11:58:28;13.90;99.90
51996;DHT22;38010;53.264;6.592;2023-11-18T12:00:59;14.00;99.90
51996;DHT22;38010;53.264;6.592;2023-11-18T12:03:27;13.90;99.90
51996;DHT22;38010;53.264;6.592;2023-11-18T12:06:01;13.90;99.90
51996;DHT22;38010;53.264;6.592;2023-11-18T12:08:35;13.90;99.90
51996;DHT22;38010;53.264;6.592;2023-11-18T12:11:02;13.90;99.90
51996;DHT22;38010;53.264;6.592;2023-11-18T12:13:28;13.80;99.90
51996;DHT22;38010;53.264;6.592;2023-11-18T12:15:59;13.80;99.90
51996;DHT22;38010;53.264;6.592;2023-11-18T12:18:35;13.80;99.90
51996;DHT22;38010;53.264;6.592;2023-11-18T12:21:02;13.80;99.90
51996;DHT22;38010;53.264;6.592;2023-11-18T12:23:28;13.80;99.90
51996;DHT22;38010;53.264;6.592;2023-11-18T12:25:56;13.70;99.90
51996;DHT22;38010;53.264;6.592;2023-11-18T12:31:00;13.70;99.90
51996;DHT22;38010;53.264;6.592;2023-11-18T12:45:42;13.70;99.90
51996;DHT22;38010;53.264;6.592;2023-11-18T12:48:14;13.70;99.90
51996;DHT22;38010;53.264;6.592;2023-11-18T12:50:41;13.80;99.90
51996;DHT22;38010;53.264;6.592;2023-11-18T12:53:10;13.70;99.90
51996;DHT22;38010;53.264;6.592;2023-11-18T12:55:36;13.70;99.90
51996;DHT22;38010;53.264;6.592;2023-11-18T12:58:03;13.80;99.90
51996;DHT22;38010;53.264;6.592;2023-11-18T13:00:31;13.80;99.90
51996;DHT22;38010;53.264;6.592;2023-11-18T13:03:00;13.80;99.90
51996;DHT22;38010;53.264;6.592;2023-11-18T13:05:26;13.80;99.90
51996;DHT22;38010;53.264;6.592;2023-11-18T13:07:56;13.90;99.90
51996;DHT22;38010;53.264;6.592;2023-11-18T13:10:23;13.90;99.90
51996;DHT22;38010;53.264;6.592;2023-11-18T13:12:50;13.90;99.90
51996;DHT22;38010;53.264;6.592;2023-11-18T13:15:16;14.00;99.90
51996;DHT22;38010;53.264;6.592;2023-11-18T13:18:00;14.00;99.90
51996;DHT22;38010;53.264;6.592;2023-11-18T13:20:26;14.00;99.90
51996;DHT22;38010;53.264;6.592;2023-11-18T13:22:52;14.00;99.90
51996;DHT22;38010;53.264;6.592;2023-11-18T13:25:24;14.10;99.90
51996;DHT22;38010;53.264;6.592;2023-11-18T13:27:50;14.10;99.90
51996;DHT22;38010;53.264;6.592;2023-11-18T13:30:17;14.10;99.90
51996;DHT22;38010;53.264;6.592;2023-11-18T13:32:46;14.10;99.90
51996;DHT22;38010;53.264;6.592;2023-11-18T13:35:11;14.10;99.90
51996;DHT22;38010;53.264;6.592;2023-11-18T13:37:39;14.20;99.90
51996;DHT22;38010;53.264;6.592;2023-11-18T13:40:07;14.20;99.90
51996;DHT22;38010;53.264;6.592;2023-11-18T13:42:33;14.20;99.90
51996;DHT22;38010;53.264;6.592;2023-11-18T13:45:05;14.20;99.90
51996;DHT22;38010;53.264;6.592;2023-11-18T13:47:37;14.20;99.90
51996;DHT22;38010;53.264;6.592;2023-11-18T13:50:12;14.20;99.90
51996;DHT22;38010;53.264;6.592;2023-11-18T13:52:39;14.20;99.90
51996;DHT22;38010;53.264;6.592;2023-11-18T13:55:06;14.20;99.90
51996;DHT22;38010;53.264;6.592;2023-11-18T13:57:32;14.20;99.90
51996;DHT22;38010;53.264;6.592;2023-11-18T13:59:58;14.30;99.90
51996;DHT22;38010;53.264;6.592;2023-11-18T14:02:24;14.20;99.90
51996;DHT22;38010;53.264;6.592;2023-11-18T14:04:50;14.30;99.90
51996;DHT22;38010;53.264;6.592;2023-11-18T14:07:16;14.30;99.90
51996;DHT22;38010;53.264;6.592;2023-11-18T14:09:45;14.30;99.90
51996;DHT22;38010;53.264;6.592;2023-11-18T14:12:12;14.30;99.90
51996;DHT22;38010;53.264;6.592;2023-11-18T14:14:38;14.30;99.90
51996;DHT22;38010;53.264;6.592;2023-11-18T14:17:05;14.30;99.90
51996;DHT22;38010;53.264;6.592;2023-11-18T14:19:32;14.30;99.90
51996;DHT22;38010;53.264;6.592;2023-11-18T14:22:00;14.30;99.90
51996;DHT22;38010;53.264;6.592;2023-11-18T14:24:29;14.30;99.90
51996;DHT22;38010;53.264;6.592;2023-11-18T14:26:57;14.30;99.90
51996;DHT22;38010;53.264;6.592;2023-11-18T14:29:23;14.30;99.90
51996;DHT22;38010;53.264;6.592;2023-11-18T14:31:49;14.30;99.90
51996;DHT22;38010;53.264;6.592;2023-11-18T14:34:15;14.30;99.90
51996;DHT22;38010;53.264;6.592;2023-11-18T14:36:41;14.30;99.90
51996;DHT22;38010;53.264;6.592;2023-11-18T14:39:09;14.30;99.90
51996;DHT22;38010;53.264;6.592;2023-11-18T14:41:39;14.30;99.90
51996;DHT22;38010;53.264;6.592;2023-11-18T14:44:05;14.30;99.90
51996;DHT22;38010;53.264;6.592;2023-11-18T14:46:31;14.30;99.90
51996;DHT22;38010;53.264;6.592;2023-11-18T14:48:57;14.30;99.90
51996;DHT22;38010;53.264;6.592;2023-11-18T14:51:23;14.30;99.90
51996;DHT22;38010;53.264;6.592;2023-11-18T14:53:49;14.30;99.90
51996;DHT22;38010;53.264;6.592;2023-11-18T14:56:15;14.30;99.90
51996;DHT22;38010;53.264;6.592;2023-11-18T14:58:41;14.30;99.90
51996;DHT22;38010;53.264;6.592;2023-11-18T15:01:06;14.30;99.90
51996;DHT22;38010;53.264;6.592;2023-11-18T15:03:34;14.30;99.90
51996;DHT22;38010;53.264;6.592;2023-11-18T15:06:00;14.20;99.90
51996;DHT22;38010;53.264;6.592;2023-11-18T15:08:26;14.20;99.90
51996;DHT22;38010;53.264;6.592;2023-11-18T15:10:51;14.20;99.90
51996;DHT22;38010;53.264;6.592;2023-11-18T15:13:17;14.20;99.90
51996;DHT22;38010;53.264;6.592;2023-11-18T15:15:44;14.20;99.90
51996;DHT22;38010;53.264;6.592;2023-11-18T15:18:13;14.20;99.90
51996;DHT22;38010;53.264;6.592;2023-11-18T15:20:57;14.20;99.90
51996;DHT22;38010;53.264;6.592;2023-11-18T15:23:23;14.10;99.90
51996;DHT22;38010;53.264;6.592;2023-11-18T15:25:49;14.10;99.90
51996;DHT22;38010;53.264;6.592;2023-11-18T15:28:17;14.10;99.90
51996;DHT22;38010;53.264;6.592;2023-11-18T15:30:44;14.10;99.90
51996;DHT22;38010;53.264;6.592;2023-11-18T15:33:10;14.20;99.90
51996;DHT22;38010;53.264;6.592;2023-11-18T15:35:39;14.20;99.90
51996;DHT22;38010;53.264;6.592;2023-11-18T15:38:12;14.20;99.90
51996;DHT22;38010;53.264;6.592;2023-11-18T15:40:42;14.20;99.90
51996;DHT22;38010;53.264;6.592;2023-11-18T15:43:08;14.20;99.90
51996;DHT22;38010;53.264;6.592;2023-11-18T15:45:37;14.20;99.90
51996;DHT22;38010;53.264;6.592;2023-11-18T15:48:03;14.10;99.90
51996;DHT22;38010;53.264;6.592;2023-11-18T15:50:35;14.10;99.90
51996;DHT22;38010;53.264;6.592;2023-11-18T15:53:03;14.10;99.90
51996;DHT22;38010;53.264;6.592;2023-11-18T15:55:31;14.10;99.90
51996;DHT22;38010;53.264;6.592;2023-11-18T15:57:57;14.10;99.90
51996;DHT22;38010;53.264;6.592;2023-11-18T16:00:24;14.00;99.90